Time,TemperatureF,DewpointF,PressureIn,WindDirection,WindDirectionDegrees,WindSpeedMPH,WindSpeedGustMPH,Humidity,HourlyPrecipIn,Conditions,Clouds,dailyrainin,SoftwareType,DateUTC
2013-03-30 00:02:00,57.0,46.0,-100.00,North,-999,-999.0,-999.0,66,-99.99,,,-99.99,,2013-03-30 07:02:00,
2013-03-30 00:12:00,57.0,46.0,-100.00,North,-999,-999.0,-999.0,66,-99.99,,,-99.99,,2013-03-30 07:12:00,
2013-03-30 00:22:00,54.0,48.0,-100.00,North,0,-999.0,-999.0,79,-99.99,,,-99.99,,2013-03-30 07:22:00,
2013-03-30 00:32:00,54.0,48.0,-100.00,North,0,-999.0,-999.0,79,-99.99,,,-99.99,,2013-03-30 07:32:00,
2013-03-30 00:42:00,54.0,48.0,-100.00,North,0,-999.0,-999.0,79,-99.99,,,-99.99,,2013-03-30 07:42:00,
2013-03-30 00:52:00,48.0,48.0,-100.00,SE,143,-999.0,-999.0,100,-99.99,,,-99.99,,2013-03-30 07:52:00,
2013-03-30 01:01:00,48.0,48.0,-100.00,SE,143,-999.0,-999.0,100,-99.99,,,-99.99,,2013-03-30 08:01:00,
2013-03-30 01:12:00,48.0,48.0,-100.00,SE,143,-999.0,-999.0,100,-99.99,,,-99.99,,2013-03-30 08:12:00,
2013-03-30 01:21:00,48.0,48.0,-100.00,SE,143,-999.0,-999.0,100,-99.99,,,-99.99,,2013-03-30 08:21:00,
2013-03-30 01:32:00,48.0,48.0,-100.00,SE,143,-999.0,-999.0,100,-99.99,,,-99.99,,2013-03-30 08:32:00,
2013-03-30 01:42:00,48.0,48.0,-100.00,SE,143,-999.0,-999.0,100,-99.99,,,-99.99,,2013-03-30 08:42:00,
2013-03-30 01:53:00,47.0,47.0,-100.00,SE,143,-999.0,-999.0,100,-99.99,,,-99.99,,2013-03-30 08:53:00,
2013-03-30 02:01:00,47.0,47.0,-100.00,SE,143,-999.0,-999.0,100,-99.99,,,-99.99,,2013-03-30 09:01:00,
2013-03-30 02:12:00,47.0,47.0,-100.00,SE,143,-999.0,-999.0,100,-99.99,,,-99.99,,2013-03-30 09:12:00,
2013-03-30 02:22:00,51.0,47.0,-100.00,NE,34,-999.0,-999.0,85,-99.99,,,-99.99,,2013-03-30 09:22:00,
2013-03-30 02:33:00,51.0,47.0,-100.00,NE,34,-999.0,-999.0,85,-99.99,,,-99.99,,2013-03-30 09:33:00,
2013-03-30 02:43:00,51.0,47.0,-100.00,NE,34,-999.0,-999.0,85,-99.99,,,-99.99,,2013-03-30 09:43:00,
2013-03-30 02:53:00,54.0,44.0,-100.00,North,10,-999.0,-999.0,68,-99.99,,,-99.99,,2013-03-30 09:53:00,
2013-03-30 03:02:00,54.0,44.0,-100.00,North,10,-999.0,-999.0,68,-99.99,,,-99.99,,2013-03-30 10:02:00,
2013-03-30 03:12:00,54.0,44.0,-100.00,North,10,-999.0,-999.0,68,-99.99,,,-99.99,,2013-03-30 10:12:00,
2013-03-30 03:23:00,56.0,44.0,-100.00,North,4,-999.0,-999.0,65,-99.99,,,-99.99,,2013-03-30 10:23:00,
2013-03-30 03:32:00,56.0,44.0,-100.00,North,4,-999.0,-999.0,65,-99.99,,,-99.99,,2013-03-30 10:32:00,
2013-03-30 03:42:00,56.0,44.0,-100.00,North,4,-999.0,-999.0,65,-99.99,,,-99.99,,2013-03-30 10:42:00,
2013-03-30 03:52:00,54.0,43.0,-100.00,North,2,-999.0,-999.0,67,-99.99,,,0.00,,2013-03-30 10:52:00,
2013-03-30 04:02:00,54.0,43.0,-100.00,North,2,-999.0,-999.0,67,-99.99,,,0.00,,2013-03-30 11:02:00,
2013-03-30 04:12:00,54.0,43.0,-100.00,North,2,-999.0,-999.0,67,-99.99,,,0.00,,2013-03-30 11:12:00,
2013-03-30 04:22:00,55.0,43.0,-100.00,North,2,-999.0,-999.0,65,-99.99,,,-99.99,,2013-03-30 11:22:00,
2013-03-30 04:32:00,55.0,43.0,-100.00,North,2,-999.0,-999.0,65,-99.99,,,-99.99,,2013-03-30 11:32:00,
2013-03-30 04:42:00,55.0,43.0,-100.00,North,2,-999.0,-999.0,65,-99.99,,,-99.99,,2013-03-30 11:42:00,
2013-03-30 04:53:00,55.0,44.0,-100.00,North,5,-999.0,-999.0,67,-99.99,,,-99.99,,2013-03-30 11:53:00,
2013-03-30 05:02:00,55.0,44.0,-100.00,North,5,-999.0,-999.0,67,-99.99,,,-99.99,,2013-03-30 12:02:00,
2013-03-30 05:12:00,55.0,44.0,-100.00,North,5,-999.0,-999.0,67,-99.99,,,-99.99,,2013-03-30 12:12:00,
2013-03-30 05:22:00,51.0,44.0,-100.00,North,6,-999.0,-999.0,78,-99.99,,,-99.99,,2013-03-30 12:22:00,
2013-03-30 05:32:00,51.0,44.0,-100.00,North,6,-999.0,-999.0,78,-99.99,,,-99.99,,2013-03-30 12:32:00,
2013-03-30 05:42:00,51.0,44.0,-100.00,North,6,-999.0,-999.0,78,-99.99,,,-99.99,,2013-03-30 12:42:00,
2013-03-30 05:53:00,47.0,47.0,-100.00,North,-999,-999.0,-999.0,100,-99.99,,,-99.99,,2013-03-30 12:53:00,
2013-03-30 06:02:00,47.0,47.0,-100.00,North,-999,-999.0,-999.0,100,-99.99,,,-99.99,,2013-03-30 13:02:00,
2013-03-30 06:12:00,47.0,47.0,-100.00,North,-999,-999.0,-999.0,100,-99.99,,,-99.99,,2013-03-30 13:12:00,
2013-03-30 06:22:00,48.0,47.0,-100.00,North,-999,-999.0,-999.0,96,-99.99,,,-99.99,,2013-03-30 13:22:00,
2013-03-30 06:32:00,48.0,47.0,-100.00,North,-999,-999.0,-999.0,96,-99.99,,,-99.99,,2013-03-30 13:32:00,
2013-03-30 06:43:00,48.0,47.0,-100.00,North,-999,-999.0,-999.0,96,-99.99,,,-99.99,,2013-03-30 13:43:00,
2013-03-30 06:52:00,48.0,44.0,-100.00,NNW,346,-999.0,-999.0,86,-99.99,,,-99.99,,2013-03-30 13:52:00,
2013-03-30 07:02:00,48.0,44.0,-100.00,NNW,346,-999.0,-999.0,86,-99.99,,,-99.99,,2013-03-30 14:02:00,
2013-03-30 07:11:00,48.0,44.0,-100.00,NNW,346,-999.0,-999.0,86,-99.99,,,-99.99,,2013-03-30 14:11:00,
2013-03-30 07:22:00,46.0,44.0,-100.00,NE,35,-999.0,-999.0,93,-99.99,,,-99.99,,2013-03-30 14:22:00,
2013-03-30 07:32:00,46.0,44.0,-100.00,NE,35,-999.0,-999.0,93,-99.99,,,-99.99,,2013-03-30 14:32:00,
2013-03-30 07:42:00,46.0,44.0,-100.00,NE,35,-999.0,-999.0,93,-99.99,,,-99.99,,2013-03-30 14:42:00,
2013-03-30 07:52:00,53.0,40.0,-100.00,NNE,16,-999.0,-999.0,61,-99.99,,,-99.99,,2013-03-30 14:52:00,
2013-03-30 08:02:00,53.0,40.0,-100.00,NNE,16,-999.0,-999.0,61,-99.99,,,-99.99,,2013-03-30 15:02:00,
2013-03-30 08:12:00,53.0,40.0,-100.00,NNE,16,-999.0,-999.0,61,-99.99,,,-99.99,,2013-03-30 15:12:00,
2013-03-30 08:22:00,58.0,41.0,-100.00,NNE,16,-999.0,-999.0,53,-99.99,,,-99.99,,2013-03-30 15:22:00,
2013-03-30 08:33:00,58.0,41.0,-100.00,NNE,16,-999.0,-999.0,53,-99.99,,,-99.99,,2013-03-30 15:33:00,
2013-03-30 08:53:00,66.0,46.0,-100.00,South,179,-999.0,-999.0,49,-99.99,,,-99.99,,2013-03-30 15:53:00,
2013-03-30 09:02:00,66.0,46.0,-100.00,South,179,-999.0,-999.0,49,-99.99,,,-99.99,,2013-03-30 16:02:00,
2013-03-30 09:22:00,64.0,50.0,-100.00,SSE,150,-999.0,-999.0,61,-99.99,,,-99.99,,2013-03-30 16:22:00,
2013-03-30 09:32:00,64.0,50.0,-100.00,SSE,150,-999.0,-999.0,61,-99.99,,,-99.99,,2013-03-30 16:32:00,
2013-03-30 09:52:00,61.0,53.0,-100.00,SE,144,-999.0,-999.0,76,-99.99,,,-99.99,,2013-03-30 16:52:00,
2013-03-30 10:02:00,61.0,53.0,-100.00,SE,144,-999.0,-999.0,76,-99.99,,,-99.99,,2013-03-30 17:02:00,
2013-03-30 10:22:00,63.0,55.0,-100.00,SSE,152,-999.0,-999.0,75,-99.99,,,-99.99,,2013-03-30 17:22:00,
2013-03-30 10:32:00,63.0,55.0,-100.00,SSE,152,-999.0,-999.0,75,-99.99,,,-99.99,,2013-03-30 17:32:00,
2013-03-30 10:52:00,64.0,54.0,-100.00,SE,126,-999.0,-999.0,69,-99.99,,,-99.99,,2013-03-30 17:52:00,
2013-03-30 11:02:00,64.0,54.0,-100.00,SE,126,-999.0,-999.0,69,-99.99,,,-99.99,,2013-03-30 18:02:00,
2013-03-30 11:12:00,64.0,54.0,-100.00,SE,126,-999.0,-999.0,69,-99.99,,,-99.99,,2013-03-30 18:12:00,
2013-03-30 11:22:00,68.0,51.0,-100.00,South,178,-999.0,-999.0,55,-99.99,,,-99.99,,2013-03-30 18:22:00,
2013-03-30 11:32:00,68.0,51.0,-100.00,South,178,-999.0,-999.0,55,-99.99,,,-99.99,,2013-03-30 18:32:00,
2013-03-30 12:22:00,68.0,-99.9,-100.00,SSE,151,-999.0,-999.0,-999,-99.99,,,-99.99,,2013-03-30 19:22:00,
2013-03-30 12:32:00,68.0,-99.9,-100.00,SSE,151,-999.0,-999.0,-999,-99.99,,,-99.99,,2013-03-30 19:32:00,
2013-03-30 12:43:00,68.0,-99.9,-100.00,SSE,151,-999.0,-999.0,-999,-99.99,,,-99.99,,2013-03-30 19:43:00,
2013-03-30 12:53:00,71.0,52.0,-100.00,SE,130,-999.0,-999.0,52,-99.99,,,-99.99,,2013-03-30 19:53:00,
2013-03-30 13:02:00,71.0,52.0,-100.00,SE,130,-999.0,-999.0,52,-99.99,,,-99.99,,2013-03-30 20:02:00,
2013-03-30 13:12:00,71.0,52.0,-100.00,SE,130,-999.0,-999.0,52,-99.99,,,-99.99,,2013-03-30 20:12:00,
2013-03-30 13:21:00,71.0,54.0,-100.00,SW,226,-999.0,-999.0,54,-99.99,,,-99.99,,2013-03-30 20:21:00,
2013-03-30 13:32:00,71.0,54.0,-100.00,SW,226,-999.0,-999.0,54,-99.99,,,-99.99,,2013-03-30 20:32:00,
2013-03-30 13:43:00,71.0,54.0,-100.00,SW,226,-999.0,-999.0,54,-99.99,,,-99.99,,2013-03-30 20:43:00,
2013-03-30 13:53:00,69.0,55.0,-100.00,South,175,-999.0,-999.0,62,-99.99,,,-99.99,,2013-03-30 20:53:00,
2013-03-30 14:02:00,69.0,55.0,-100.00,South,175,-999.0,-999.0,62,-99.99,,,-99.99,,2013-03-30 21:02:00,
2013-03-30 14:12:00,69.0,55.0,-100.00,South,175,-999.0,-999.0,62,-99.99,,,-99.99,,2013-03-30 21:12:00,
2013-03-30 14:22:00,66.0,54.0,-100.00,SSE,147,-999.0,-999.0,65,-99.99,,,-99.99,,2013-03-30 21:22:00,
2013-03-30 14:32:00,66.0,54.0,-100.00,SSE,147,-999.0,-999.0,65,-99.99,,,-99.99,,2013-03-30 21:32:00,
2013-03-30 14:43:00,66.0,54.0,-100.00,SSE,147,-999.0,-999.0,65,-99.99,,,-99.99,,2013-03-30 21:43:00,
2013-03-30 14:53:00,67.0,52.0,-100.00,SE,125,-999.0,-999.0,59,-99.99,,,-99.99,,2013-03-30 21:53:00,
2013-03-30 15:02:00,67.0,52.0,-100.00,SE,125,-999.0,-999.0,59,-99.99,,,-99.99,,2013-03-30 22:02:00,
2013-03-30 15:12:00,67.0,52.0,-100.00,SE,125,-999.0,-999.0,59,-99.99,,,-99.99,,2013-03-30 22:12:00,
2013-03-30 15:23:00,69.0,52.0,-100.00,SSW,194,-999.0,-999.0,54,-99.99,,,-99.99,,2013-03-30 22:23:00,
2013-03-30 15:32:00,69.0,52.0,-100.00,SSW,194,-999.0,-999.0,54,-99.99,,,-99.99,,2013-03-30 22:32:00,
2013-03-30 15:43:00,69.0,52.0,-100.00,SSW,194,-999.0,-999.0,54,-99.99,,,-99.99,,2013-03-30 22:43:00,
2013-03-30 15:53:00,67.0,51.0,-100.00,West,260,-999.0,-999.0,56,-99.99,,,-99.99,,2013-03-30 22:53:00,
2013-03-30 16:02:00,67.0,51.0,-100.00,West,260,-999.0,-999.0,56,-99.99,,,-99.99,,2013-03-30 23:02:00,
2013-03-30 16:12:00,67.0,51.0,-100.00,West,260,-999.0,-999.0,56,-99.99,,,-99.99,,2013-03-30 23:12:00,
2013-03-30 16:22:00,64.0,47.0,-100.00,WSW,248,-999.0,-999.0,53,-99.99,,,-99.99,,2013-03-30 23:22:00,
2013-03-30 16:32:00,64.0,47.0,-100.00,WSW,248,-999.0,-999.0,53,-99.99,,,-99.99,,2013-03-30 23:32:00,
2013-03-30 16:43:00,64.0,47.0,-100.00,WSW,248,-999.0,-999.0,53,-99.99,,,-99.99,,2013-03-30 23:43:00,
2013-03-30 16:53:00,66.0,42.0,-100.00,WSW,257,-999.0,-999.0,42,-99.99,,,-99.99,,2013-03-30 23:53:00,
2013-03-30 17:02:00,66.0,42.0,-100.00,WSW,257,-999.0,-999.0,42,-99.99,,,-99.99,,2013-03-31 00:02:00,
2013-03-30 17:12:00,66.0,42.0,-100.00,WSW,257,-999.0,-999.0,42,-99.99,,,-99.99,,2013-03-31 00:12:00,
2013-03-30 17:22:00,68.0,39.0,-100.00,West,263,-999.0,-999.0,34,-99.99,,,-99.99,,2013-03-31 00:22:00,
2013-03-30 17:32:00,68.0,39.0,-100.00,West,263,-999.0,-999.0,34,-99.99,,,-99.99,,2013-03-31 00:32:00,
2013-03-30 17:52:00,68.0,39.0,-100.00,SW,236,-999.0,-999.0,35,-99.99,,,-99.99,,2013-03-31 00:52:00,
2013-03-30 18:01:00,68.0,39.0,-100.00,SW,236,-999.0,-999.0,35,-99.99,,,-99.99,,2013-03-31 01:01:00,
2013-03-30 18:22:00,64.0,42.0,-100.00,WSW,254,-999.0,-999.0,44,-99.99,,,-99.99,,2013-03-31 01:22:00,
2013-03-30 18:32:00,64.0,42.0,-100.00,WSW,254,-999.0,-999.0,44,-99.99,,,-99.99,,2013-03-31 01:32:00,
2013-03-30 18:43:00,64.0,42.0,-100.00,WSW,254,-999.0,-999.0,44,-99.99,,,-99.99,,2013-03-31 01:43:00,
2013-03-30 18:52:00,62.0,39.0,-100.00,SSW,211,-999.0,-999.0,42,-99.99,,,-99.99,,2013-03-31 01:52:00,
2013-03-30 19:02:00,62.0,39.0,-100.00,SSW,211,-999.0,-999.0,42,-99.99,,,-99.99,,2013-03-31 02:02:00,
2013-03-30 19:12:00,62.0,39.0,-100.00,SSW,211,-999.0,-999.0,42,-99.99,,,-99.99,,2013-03-31 02:12:00,
2013-03-30 19:22:00,56.0,43.0,-100.00,WSW,237,-999.0,-999.0,61,-99.99,,,-99.99,,2013-03-31 02:22:00,
2013-03-30 19:32:00,56.0,43.0,-100.00,WSW,237,-999.0,-999.0,61,-99.99,,,-99.99,,2013-03-31 02:32:00,
2013-03-30 19:43:00,56.0,43.0,-100.00,WSW,237,-999.0,-999.0,61,-99.99,,,-99.99,,2013-03-31 02:43:00,
2013-03-30 19:52:00,53.0,41.0,-100.00,WSW,237,-999.0,-999.0,64,-99.99,,,-99.99,,2013-03-31 02:52:00,
2013-03-30 20:02:00,53.0,41.0,-100.00,WSW,237,-999.0,-999.0,64,-99.99,,,-99.99,,2013-03-31 03:02:00,
2013-03-30 20:12:00,53.0,41.0,-100.00,WSW,237,-999.0,-999.0,64,-99.99,,,-99.99,,2013-03-31 03:12:00,
2013-03-30 20:22:00,69.0,52.0,-100.00,West,279,-999.0,-999.0,55,-99.99,,,-99.99,,2013-03-31 03:22:00,
2013-03-30 20:32:00,69.0,52.0,-100.00,West,279,-999.0,-999.0,55,-99.99,,,-99.99,,2013-03-31 03:32:00,
2013-03-30 20:54:00,53.0,38.0,-100.00,West,279,-999.0,-999.0,57,-99.99,,,-99.99,,2013-03-31 03:54:00,
2013-03-30 21:02:00,53.0,-99.9,-100.00,West,279,-999.0,-999.0,57,-99.99,,,-99.99,,2013-03-31 04:02:00,
2013-03-30 21:12:00,53.0,38.0,-100.00,West,279,-999.0,-999.0,57,-99.99,,,-99.99,,2013-03-31 04:12:00,
2013-03-30 21:22:00,52.0,39.0,-100.00,North,358,-999.0,-999.0,60,-99.99,,,-99.99,,2013-03-31 04:22:00,
2013-03-30 21:32:00,52.0,39.0,-100.00,North,358,-999.0,-999.0,60,-99.99,,,-99.99,,2013-03-31 04:32:00,
2013-03-30 21:42:00,52.0,39.0,-100.00,North,358,-999.0,-999.0,60,-99.99,,,-99.99,,2013-03-31 04:42:00,
2013-03-30 21:52:00,52.0,40.0,-100.00,North,358,-999.0,-999.0,63,-99.99,,,-99.99,,2013-03-31 04:52:00,
2013-03-30 22:02:00,52.0,40.0,-100.00,North,358,-999.0,-999.0,63,-99.99,,,-99.99,,2013-03-31 05:02:00,
2013-03-30 22:12:00,52.0,40.0,-100.00,North,358,-999.0,-999.0,63,-99.99,,,-99.99,,2013-03-31 05:12:00,
2013-03-30 22:22:00,52.0,43.0,-100.00,North,358,-999.0,-999.0,72,-99.99,,,-99.99,,2013-03-31 05:22:00,
2013-03-30 22:32:00,52.0,43.0,-100.00,North,358,-999.0,-999.0,72,-99.99,,,-99.99,,2013-03-31 05:32:00,
2013-03-30 22:42:00,52.0,43.0,-100.00,North,358,-999.0,-999.0,72,-99.99,,,-99.99,,2013-03-31 05:42:00,
2013-03-30 22:53:00,53.0,46.0,-100.00,North,358,-999.0,-999.0,78,-99.99,,,-99.99,,2013-03-31 05:53:00,
2013-03-30 23:01:00,53.0,46.0,-100.00,North,358,-999.0,-999.0,78,-99.99,,,-99.99,,2013-03-31 06:01:00,
2013-03-30 23:12:00,53.0,46.0,-100.00,North,358,-999.0,-999.0,78,-99.99,,,-99.99,,2013-03-31 06:12:00,
2013-03-30 23:22:00,53.0,48.0,-100.00,SE,130,-999.0,-999.0,82,-99.99,,,-99.99,,2013-03-31 06:22:00,
2013-03-30 23:32:00,53.0,48.0,-100.00,SE,130,-999.0,-999.0,82,-99.99,,,-99.99,,2013-03-31 06:32:00,
2013-03-30 23:42:00,53.0,48.0,-100.00,SE,130,-999.0,-999.0,82,-99.99,,,-99.99,,2013-03-31 06:42:00,
2013-03-30 23:52:00,52.0,49.0,-100.00,SSW,203,-999.0,-999.0,90,-99.99,,,-99.99,,2013-03-31 06:52:00,